Prt Angeles, Washington
Current Conditions -  °F | °C
As of 10:46 AM on Monday 26 Jan 2015 (Local Time) from KCLM Reporting Station
Moderate Fog Moderate Fog  
Wind Chill: 46°   Ceiling: 200
Heat Index: 46°   Visibility: 0.25mi
Dew Point: 45°   Wind: 0mph
Humidity: 96%   Direction: NA
Pressure: 29.93"   Gusts: NA
Location:  47.9555°N, 123.813°W
Report Text: KCLM 261846Z AUTO 00000KT 1/4SM FG VV002 08/07 A2993 RMK AO2 T00780072 $
Loading
Personal Weather Stations






























Interactive Weather Map New forecast layout! Learn more

10-Day Weather Forecast

Advertisements
Track Severe Weather on mobile